Time,TemperatureF,DewpointF,PressureIn,WindDirection,WindDirectionDegrees,WindSpeedMPH,WindSpeedGustMPH,Humidity,HourlyPrecipIn,Conditions,Clouds,dailyrainin,SoftwareType,DateUTC
2013-06-14 00:09:00,63.1,50.8,28.07,NE,39,1.0,3.0,64,0.00,CLR,,0.00,WeatherDisplay:10.37,2013-06-14 04:09:00,
2013-06-14 00:19:00,63.0,50.6,28.07,NNE,32,1.0,2.0,64,0.00,CLR,,0.00,WeatherDisplay:10.37,2013-06-14 04:19:00,
2013-06-14 00:29:00,62.8,50.4,28.07,NE,47,1.0,3.0,64,0.00,CLR,,0.00,WeatherDisplay:10.37,2013-06-14 04:29:00,
2013-06-14 00:39:00,62.6,50.7,28.07,NE,48,0.0,2.0,65,0.00,CLR,,0.00,WeatherDisplay:10.37,2013-06-14 04:39:00,
2013-06-14 00:49:00,62.4,50.5,28.07,North,8,0.0,2.0,65,0.00,CLR,,0.00,WeatherDisplay:10.37,2013-06-14 04:49:00,
2013-06-14 00:59:00,62.2,50.3,28.07,ENE,70,0.0,1.0,65,0.00,CLR,,0.00,WeatherDisplay:10.37,2013-06-14 04:59:00,
2013-06-14 01:09:00,61.9,50.4,28.07,East,79,0.0,2.0,66,0.00,CLR,,0.00,WeatherDisplay:10.37,2013-06-14 05:09:00,
2013-06-14 01:19:00,61.7,50.6,28.07,NE,47,0.0,1.0,67,0.00,CLR,,0.00,WeatherDisplay:10.37,2013-06-14 05:19:00,
2013-06-14 01:29:00,61.3,50.7,28.07,NE,36,1.0,3.0,68,0.00,CLR,,0.00,WeatherDisplay:10.37,2013-06-14 05:29:00,
2013-06-14 01:39:00,61.3,51.1,28.07,North,358,0.0,2.0,69,0.00,CLR,,0.00,WeatherDisplay:10.37,2013-06-14 05:39:00,
2013-06-14 01:49:00,61.3,51.1,28.07,NE,52,1.0,1.0,69,0.00,CLR,,0.00,WeatherDisplay:10.37,2013-06-14 05:49:00,
2013-06-14 01:59:00,61.3,50.7,28.07,NNE,26,0.0,3.0,68,0.00,CLR,,0.00,WeatherDisplay:10.37,2013-06-14 05:59:00,
2013-06-14 02:09:00,61.0,50.3,28.07,SE,144,0.0,1.0,68,0.00,CLR,,0.00,WeatherDisplay:10.37,2013-06-14 06:09:00,
2013-06-14 02:19:00,60.3,50.4,28.07,South,180,0.0,1.0,70,0.00,CLR,,0.00,WeatherDisplay:10.37,2013-06-14 06:19:00,
2013-06-14 02:29:00,59.5,50.5,28.07,NW,304,0.0,0.0,72,0.00,CLR,,0.00,WeatherDisplay:10.37,2013-06-14 06:29:00,
2013-06-14 02:39:00,59.1,51.2,28.07,North,9,0.0,0.0,75,0.00,CLR,,0.00,WeatherDisplay:10.37,2013-06-14 06:39:00,
2013-06-14 02:49:00,58.8,52.3,28.07,SE,146,0.0,0.0,79,0.00,CLR,,0.00,WeatherDisplay:10.37,2013-06-14 06:49:00,
2013-06-14 02:59:00,58.5,52.6,28.07,ENE,67,0.0,0.0,81,0.00,CLR,,0.00,WeatherDisplay:10.37,2013-06-14 06:59:00,
2013-06-14 03:09:00,58.3,52.5,28.07,East,86,0.0,0.0,81,0.00,CLR,,0.00,WeatherDisplay:10.37,2013-06-14 07:09:00,
2013-06-14 03:19:00,58.1,52.3,28.07,SE,128,0.0,0.0,81,0.00,CLR,,0.00,WeatherDisplay:10.37,2013-06-14 07:19:00,
2013-06-14 03:29:00,57.9,52.8,28.07,NNE,27,0.0,0.0,83,0.00,CLR,,0.00,WeatherDisplay:10.37,2013-06-14 07:29:00,
2013-06-14 03:39:00,58.1,53.3,28.07,North,8,0.0,2.0,84,0.00,CLR,,0.00,WeatherDisplay:10.37,2013-06-14 07:39:00,
2013-06-14 03:49:00,58.5,54.0,28.07,North,354,0.0,3.0,85,0.00,CLR,,0.00,WeatherDisplay:10.37,2013-06-14 07:49:00,
2013-06-14 03:59:00,58.8,54.0,28.07,NE,49,0.0,2.0,84,0.00,CLR,,0.00,WeatherDisplay:10.37,2013-06-14 07:59:00,
2013-06-14 04:09:00,58.7,53.5,28.07,NE,36,1.0,2.0,83,0.00,CLR,,0.00,WeatherDisplay:10.37,2013-06-14 08:09:00,
2013-06-14 04:19:00,58.5,52.6,28.07,ENE,65,0.0,2.0,81,0.00,CLR,,0.00,WeatherDisplay:10.37,2013-06-14 08:19:00,
2013-06-14 04:29:00,58.3,52.5,28.07,ESE,112,0.0,0.0,81,0.00,CLR,,0.00,WeatherDisplay:10.37,2013-06-14 08:29:00,
2013-06-14 04:39:00,57.9,52.1,28.04,ESE,112,0.0,2.0,81,0.00,CLR,,0.00,WeatherDisplay:10.37,2013-06-14 08:39:00,
2013-06-14 04:49:00,57.6,51.8,28.07,ESE,112,0.0,0.0,81,0.00,CLR,,0.00,WeatherDisplay:10.37,2013-06-14 08:49:00,
2013-06-14 04:59:00,57.4,51.9,28.07,ESE,112,0.0,0.0,82,0.00,CLR,,0.00,WeatherDisplay:10.37,2013-06-14 08:59:00,
2013-06-14 05:09:00,57.4,52.3,28.07,SE,133,0.0,0.0,83,0.00,CLR,,0.00,WeatherDisplay:10.37,2013-06-14 09:09:00,
2013-06-14 05:19:00,57.4,52.6,28.07,SE,135,0.0,0.0,84,0.00,CLR,,0.00,WeatherDisplay:10.37,2013-06-14 09:19:00,
2013-06-14 05:29:00,57.2,52.4,28.07,ESE,123,0.0,2.0,84,0.00,CLR,,0.00,WeatherDisplay:10.37,2013-06-14 09:29:00,
2013-06-14 05:39:00,56.8,52.4,28.07,NNE,18,0.0,1.0,85,0.00,CLR,,0.00,WeatherDisplay:10.37,2013-06-14 09:39:00,
2013-06-14 05:49:00,56.8,53.0,28.07,NNW,334,0.0,0.0,87,0.00,CLR,,0.00,WeatherDisplay:10.37,2013-06-14 09:49:00,
2013-06-14 05:59:00,56.7,52.9,28.07,NW,318,0.0,0.0,87,0.00,CLR,,0.00,WeatherDisplay:10.37,2013-06-14 09:59:00,
2013-06-14 06:09:00,56.7,52.8,28.07,NW,315,0.0,0.0,87,0.00,CLR,,0.00,WeatherDisplay:10.37,2013-06-14 10:09:00,
2013-06-14 06:19:00,56.7,53.1,28.07,WNW,298,0.0,0.0,88,0.00,CLR,,0.00,WeatherDisplay:10.37,2013-06-14 10:19:00,
2013-06-14 06:29:00,56.7,53.5,28.07,NNW,346,0.0,0.0,89,0.00,CLR,,0.00,WeatherDisplay:10.37,2013-06-14 10:29:00,
2013-06-14 06:39:00,56.8,53.9,28.09,NNW,329,0.0,0.0,90,0.00,CLR,,0.00,WeatherDisplay:10.37,2013-06-14 10:39:00,
2013-06-14 06:49:00,57.2,54.3,28.09,NNW,338,0.0,0.0,90,0.00,CLR,,0.00,WeatherDisplay:10.37,2013-06-14 10:49:00,
2013-06-14 06:59:00,57.4,54.5,28.09,NNW,338,0.0,0.0,90,0.00,CLR,,0.00,WeatherDisplay:10.37,2013-06-14 10:59:00,
2013-06-14 07:09:00,57.9,55.3,28.09,NNW,338,0.0,0.0,91,0.00,CLR,,0.00,WeatherDisplay:10.37,2013-06-14 11:09:00,
2013-06-14 07:19:00,58.5,56.1,28.09,WNW,287,0.0,0.0,92,0.00,CLR,,0.00,WeatherDisplay:10.37,2013-06-14 11:19:00,
2013-06-14 07:29:00,58.6,56.3,28.09,WSW,237,2.0,4.0,92,0.00,CLR,,0.00,WeatherDisplay:10.37,2013-06-14 11:29:00,
2013-06-14 07:39:00,59.3,56.7,28.09,SSW,202,0.0,2.0,91,0.00,CLR,,0.00,WeatherDisplay:10.37,2013-06-14 11:39:00,
2013-06-14 07:49:00,59.7,56.8,28.09,SSW,202,0.0,2.0,90,0.00,CLR,,0.00,WeatherDisplay:10.37,2013-06-14 11:49:00,
2013-06-14 07:59:00,60.1,56.8,28.09,SSW,194,2.0,4.0,89,0.00,CLR,,0.00,WeatherDisplay:10.37,2013-06-14 11:59:00,
2013-06-14 08:09:00,60.6,57.0,28.12,SSW,192,2.0,4.0,88,0.00,CLR,,0.00,WeatherDisplay:10.37,2013-06-14 12:09:00,
2013-06-14 08:19:00,61.2,55.6,28.12,SSW,209,2.0,5.0,82,0.00,CLR,,0.00,WeatherDisplay:10.37,2013-06-14 12:19:00,
2013-06-14 08:29:00,61.8,55.2,28.12,SW,219,0.0,3.0,79,0.00,CLR,,0.00,WeatherDisplay:10.37,2013-06-14 12:29:00,
2013-06-14 08:39:00,62.2,53.8,28.15,SSW,204,1.0,4.0,74,0.00,CLR,,0.00,WeatherDisplay:10.37,2013-06-14 12:39:00,
2013-06-14 08:49:00,62.8,54.0,28.15,SSW,204,1.0,3.0,73,0.00,CLR,,0.00,WeatherDisplay:10.37,2013-06-14 12:49:00,
2013-06-14 08:59:00,63.1,53.2,28.15,SSW,197,2.0,5.0,70,0.00,CLR,,0.00,WeatherDisplay:10.37,2013-06-14 12:59:00,
2013-06-14 09:09:00,63.3,53.3,28.15,NNW,338,0.0,3.0,70,0.00,CLR,,0.00,WeatherDisplay:10.37,2013-06-14 13:09:00,
2013-06-14 09:19:00,63.5,50.3,28.15,WNW,284,2.0,3.0,62,0.00,CLR,,0.00,WeatherDisplay:10.37,2013-06-14 13:19:00,
2013-06-14 09:29:00,63.9,47.5,28.15,NW,310,2.0,3.0,55,0.00,CLR,,0.00,WeatherDisplay:10.37,2013-06-14 13:29:00,
2013-06-14 09:39:00,64.8,47.3,28.15,WNW,293,1.0,3.0,53,0.00,CLR,,0.00,WeatherDisplay:10.37,2013-06-14 13:39:00,
2013-06-14 09:49:00,65.3,46.2,28.15,West,259,2.0,5.0,50,0.00,CLR,,0.00,WeatherDisplay:10.37,2013-06-14 13:49:00,
2013-06-14 09:59:00,66.1,47.4,28.15,WNW,283,0.0,5.0,51,0.00,CLR,,0.00,WeatherDisplay:10.37,2013-06-14 13:59:00,
2013-06-14 10:09:00,68.6,48.7,28.18,NW,317,1.0,3.0,49,0.00,CLR,,0.00,WeatherDisplay:10.37,2013-06-14 14:09:00,
2013-06-14 10:19:00,69.1,46.2,28.15,WNW,292,1.0,3.0,44,0.00,CLR,,0.00,WeatherDisplay:10.37,2013-06-14 14:19:00,
2013-06-14 10:29:00,67.8,43.9,28.15,West,270,1.0,3.0,42,0.00,CLR,,0.00,WeatherDisplay:10.37,2013-06-14 14:29:00,
2013-06-14 10:39:00,68.0,44.0,28.18,West,278,1.0,3.0,42,0.00,CLR,,0.00,WeatherDisplay:10.37,2013-06-14 14:39:00,
2013-06-14 10:49:00,68.4,45.0,28.18,NW,326,1.0,5.0,43,0.00,CLR,,0.00,WeatherDisplay:10.37,2013-06-14 14:49:00,
2013-06-14 10:59:00,70.2,44.0,28.18,WNW,289,1.0,3.0,39,0.00,CLR,,0.00,WeatherDisplay:10.37,2013-06-14 14:59:00,
2013-06-14 11:09:00,71.7,44.8,28.15,WNW,288,1.0,3.0,38,0.00,CLR,,0.00,WeatherDisplay:10.37,2013-06-14 15:09:00,
2013-06-14 11:19:00,72.5,43.3,28.15,NE,47,2.0,3.0,35,0.00,CLR,,0.00,WeatherDisplay:10.37,2013-06-14 15:19:00,
2013-06-14 11:29:00,71.7,43.3,28.15,West,262,1.0,3.0,36,0.00,CLR,,0.00,WeatherDisplay:10.37,2013-06-14 15:29:00,
2013-06-14 11:39:00,71.2,43.6,28.15,WNW,283,2.0,3.0,37,0.00,CLR,,0.00,WeatherDisplay:10.37,2013-06-14 15:39:00,
2013-06-14 11:49:00,71.1,39.7,28.15,NW,318,2.0,3.0,32,0.00,CLR,,0.00,WeatherDisplay:10.37,2013-06-14 15:49:00,
2013-06-14 11:59:00,71.3,41.5,28.15,NW,320,0.0,3.0,34,0.00,CLR,,0.00,WeatherDisplay:10.37,2013-06-14 15:59:00,
2013-06-14 12:09:00,71.7,42.6,28.15,WNW,301,1.0,3.0,35,0.00,CLR,,0.00,WeatherDisplay:10.37,2013-06-14 16:09:00,
2013-06-14 12:19:00,71.1,41.3,28.18,WNW,292,1.0,2.0,34,0.00,CLR,,0.00,WeatherDisplay:10.37,2013-06-14 16:19:00,
2013-06-14 12:29:00,72.0,42.0,28.18,ESE,108,1.0,2.0,34,0.00,CLR,,0.00,WeatherDisplay:10.37,2013-06-14 16:29:00,
2013-06-14 12:39:00,72.9,42.1,28.18,North,358,1.0,3.0,33,0.00,CLR,,0.00,WeatherDisplay:10.37,2013-06-14 16:39:00,
2013-06-14 12:50:00,72.5,41.0,28.18,WNW,285,2.0,3.0,32,0.00,CLR,,0.00,WeatherDisplay:10.37,2013-06-14 16:50:00,
2013-06-14 12:59:00,73.7,44.3,28.18,WNW,300,2.0,3.0,35,0.00,CLR,,0.00,WeatherDisplay:10.37,2013-06-14 16:59:00,
2013-06-14 13:09:00,73.2,42.4,28.18,WNW,293,2.0,4.0,33,0.00,CLR,,0.00,WeatherDisplay:10.37,2013-06-14 17:09:00,
2013-06-14 13:19:00,74.3,41.7,28.18,NW,314,2.0,4.0,31,0.00,CLR,,0.00,WeatherDisplay:10.37,2013-06-14 17:19:00,
2013-06-14 13:29:00,73.0,40.6,28.18,WNW,283,1.0,3.0,31,0.00,CLR,,0.00,WeatherDisplay:10.37,2013-06-14 17:29:00,
2013-06-14 13:39:00,72.9,42.8,28.18,WNW,291,1.0,3.0,34,0.00,CLR,,0.00,WeatherDisplay:10.37,2013-06-14 17:39:00,
2013-06-14 13:49:00,74.1,41.5,28.18,WSW,249,1.0,3.0,31,0.00,CLR,,0.00,WeatherDisplay:10.37,2013-06-14 17:49:00,
2013-06-14 13:59:00,74.5,41.9,28.18,West,263,2.0,5.0,31,0.00,CLR,,0.00,WeatherDisplay:10.37,2013-06-14 17:59:00,
2013-06-14 14:09:00,74.1,38.9,28.18,WNW,282,2.0,5.0,28,0.00,CLR,,0.00,WeatherDisplay:10.37,2013-06-14 18:09:00,
2013-06-14 14:19:00,74.5,41.9,28.18,NNE,19,2.0,4.0,31,0.00,CLR,,0.00,WeatherDisplay:10.37,2013-06-14 18:19:00,
2013-06-14 14:29:00,75.3,42.6,28.18,NW,313,2.0,5.0,31,0.00,CLR,,0.00,WeatherDisplay:10.37,2013-06-14 18:29:00,
2013-06-14 14:39:00,75.1,39.8,28.18,NW,306,3.0,6.0,28,0.00,CLR,,0.00,WeatherDisplay:10.37,2013-06-14 18:39:00,
2013-06-14 14:49:00,73.7,37.6,28.18,West,265,2.0,6.0,27,0.00,CLR,,0.00,WeatherDisplay:10.37,2013-06-14 18:49:00,
2013-06-14 14:59:00,73.2,41.6,28.18,WNW,299,2.0,4.0,32,0.00,CLR,,0.00,WeatherDisplay:10.37,2013-06-14 18:59:00,
2013-06-14 15:09:00,74.5,40.1,28.18,NW,326,1.0,3.0,29,0.00,CLR,,0.00,WeatherDisplay:10.37,2013-06-14 19:09:00,
2013-06-14 15:19:00,75.9,40.4,28.18,West,279,2.0,5.0,28,0.00,CLR,,0.00,WeatherDisplay:10.37,2013-06-14 19:19:00,
2013-06-14 15:29:00,76.1,36.7,28.18,WNW,299,2.0,4.0,24,0.00,CLR,,0.00,WeatherDisplay:10.37,2013-06-14 19:29:00,
2013-06-14 15:39:00,75.7,42.9,28.18,NW,321,2.0,4.0,31,0.00,CLR,,0.00,WeatherDisplay:10.37,2013-06-14 19:39:00,
2013-06-14 15:49:00,76.9,43.1,28.18,WNW,283,2.0,5.0,30,0.00,CLR,,0.00,WeatherDisplay:10.37,2013-06-14 19:49:00,
2013-06-14 15:59:00,77.2,38.6,28.18,WNW,298,1.0,4.0,25,0.00,CLR,,0.00,WeatherDisplay:10.37,2013-06-14 19:59:00,
2013-06-14 16:09:00,74.5,38.3,28.18,WNW,290,2.0,5.0,27,0.00,CLR,,0.00,WeatherDisplay:10.37,2013-06-14 20:09:00,
2013-06-14 16:19:00,75.4,42.7,28.18,NNW,329,1.0,3.0,31,0.00,CLR,,0.00,WeatherDisplay:10.37,2013-06-14 20:19:00,
2013-06-14 16:29:00,76.8,43.0,28.18,WNW,290,0.0,3.0,30,0.00,CLR,,0.00,WeatherDisplay:10.37,2013-06-14 20:29:00,
2013-06-14 16:39:00,77.2,39.6,28.18,NNE,15,1.0,3.0,26,0.00,CLR,,0.00,WeatherDisplay:10.37,2013-06-14 20:39:00,
2013-06-14 16:49:00,76.3,34.6,28.21,WNW,295,3.0,6.0,22,0.00,CLR,,0.00,WeatherDisplay:10.37,2013-06-14 20:49:00,
2013-06-14 16:59:00,74.6,38.4,28.21,NW,314,2.0,6.0,27,0.00,CLR,,0.00,WeatherDisplay:10.37,2013-06-14 20:59:00,
2013-06-14 17:09:00,75.9,41.4,28.18,NNE,31,2.0,3.0,29,0.00,CLR,,0.00,WeatherDisplay:10.37,2013-06-14 21:09:00,
2013-06-14 17:19:00,76.7,41.2,28.18,NNW,340,1.0,4.0,28,0.00,CLR,,0.00,WeatherDisplay:10.37,2013-06-14 21:19:00,
2013-06-14 17:29:00,77.9,40.2,28.18,NNW,327,1.0,4.0,26,0.00,CLR,,0.00,WeatherDisplay:10.37,2013-06-14 21:29:00,
2013-06-14 17:39:00,78.3,39.5,28.18,WNW,298,1.0,4.0,25,0.00,CLR,,0.00,WeatherDisplay:10.37,2013-06-14 21:39:00,
2013-06-14 17:49:00,77.4,41.8,28.21,NNE,28,2.0,3.0,28,0.00,CLR,,0.00,WeatherDisplay:10.37,2013-06-14 21:49:00,
2013-06-14 17:59:00,77.1,40.5,28.21,NNE,13,1.0,3.0,27,0.00,CLR,,0.00,WeatherDisplay:10.37,2013-06-14 21:59:00,
2013-06-14 18:09:00,75.9,43.1,28.18,NNE,12,1.0,3.0,31,0.00,CLR,,0.00,WeatherDisplay:10.37,2013-06-14 22:09:00,
2013-06-14 18:19:00,76.6,38.2,28.18,WNW,291,1.0,3.0,25,0.00,CLR,,0.00,WeatherDisplay:10.37,2013-06-14 22:19:00,
2013-06-14 18:29:00,76.6,38.2,28.18,West,281,2.0,3.0,25,0.00,CLR,,0.00,WeatherDisplay:10.37,2013-06-14 22:29:00,
2013-06-14 18:39:00,76.7,38.2,28.18,WNW,285,1.0,3.0,25,0.00,CLR,,0.00,WeatherDisplay:10.37,2013-06-14 22:39:00,
2013-06-14 18:49:00,77.4,38.8,28.21,NW,310,1.0,2.0,25,0.00,CLR,,0.00,WeatherDisplay:10.37,2013-06-14 22:49:00,
2013-06-14 18:59:00,76.3,37.9,28.21,NNW,341,1.0,2.0,25,0.00,CLR,,0.00,WeatherDisplay:10.37,2013-06-14 22:59:00,
2013-06-14 19:09:00,75.9,38.6,28.21,North,349,1.0,2.0,26,0.00,CLR,,0.00,WeatherDisplay:10.37,2013-06-14 23:09:00,
2013-06-14 19:19:00,75.0,36.8,28.18,North,354,1.0,2.0,25,0.00,CLR,,0.00,WeatherDisplay:10.37,2013-06-14 23:19:00,
2013-06-14 19:29:00,74.7,40.3,28.18,NW,323,0.0,3.0,29,0.00,CLR,,0.00,WeatherDisplay:10.37,2013-06-14 23:29:00,
2013-06-14 19:39:00,73.7,39.5,28.18,NW,310,0.0,1.0,29,0.00,CLR,,0.00,WeatherDisplay:10.37,2013-06-14 23:39:00,
2013-06-14 19:49:00,72.1,39.8,28.21,North,6,0.0,2.0,31,0.00,CLR,,0.00,WeatherDisplay:10.37,2013-06-14 23:49:00,
2013-06-14 19:59:00,71.2,40.6,28.21,NNW,335,0.0,1.0,33,0.00,CLR,,0.00,WeatherDisplay:10.37,2013-06-14 23:59:00,
2013-06-14 20:09:00,70.5,40.8,28.18,North,350,0.0,1.0,34,0.00,CLR,,0.00,WeatherDisplay:10.37,2013-06-15 00:09:00,
2013-06-14 20:19:00,69.4,41.3,28.18,WNW,288,0.0,0.0,36,0.00,CLR,,0.00,WeatherDisplay:10.37,2013-06-15 00:19:00,
2013-06-14 20:29:00,68.4,41.1,28.18,WNW,283,0.0,0.0,37,0.00,CLR,,0.00,WeatherDisplay:10.37,2013-06-15 00:29:00,
2013-06-14 20:39:00,67.5,41.0,28.18,WNW,292,0.0,0.0,38,0.00,CLR,,0.00,WeatherDisplay:10.37,2013-06-15 00:39:00,
2013-06-14 20:49:00,66.7,42.9,28.18,WSW,248,0.0,0.0,42,0.00,CLR,,0.00,WeatherDisplay:10.37,2013-06-15 00:49:00,
2013-06-14 20:59:00,65.7,42.5,28.18,WSW,248,0.0,0.0,43,0.00,CLR,,0.00,WeatherDisplay:10.37,2013-06-15 00:59:00,
2013-06-14 21:09:00,64.8,42.3,28.18,WSW,248,0.0,0.0,44,0.00,CLR,,0.00,WeatherDisplay:10.37,2013-06-15 01:09:00,
2013-06-14 21:19:00,64.2,43.0,28.18,NW,314,0.0,0.0,46,0.00,CLR,,0.00,WeatherDisplay:10.37,2013-06-15 01:19:00,
2013-06-14 21:29:00,63.7,43.1,28.18,North,4,0.0,0.0,47,0.00,CLR,,0.00,WeatherDisplay:10.37,2013-06-15 01:29:00,
2013-06-14 21:39:00,63.2,43.7,28.18,North,358,0.0,0.0,49,0.00,CLR,,0.00,WeatherDisplay:10.37,2013-06-15 01:39:00,
2013-06-14 21:49:00,62.9,43.4,28.18,NW,323,0.0,0.0,49,0.00,CLR,,0.00,WeatherDisplay:10.37,2013-06-15 01:49:00,
2013-06-14 21:59:00,62.6,43.7,28.18,South,180,0.0,0.0,50,0.00,CLR,,0.00,WeatherDisplay:10.37,2013-06-15 01:59:00,
2013-06-14 22:09:00,62.3,44.4,28.18,South,180,0.0,0.0,52,0.00,CLR,,0.00,WeatherDisplay:10.37,2013-06-15 02:09:00,
2013-06-14 22:19:00,62.2,43.9,28.21,South,180,0.0,0.0,51,0.00,CLR,,0.00,WeatherDisplay:10.37,2013-06-15 02:19:00,
2013-06-14 22:29:00,62.1,44.2,28.21,South,180,0.0,0.0,52,0.00,CLR,,0.00,WeatherDisplay:10.37,2013-06-15 02:29:00,
2013-06-14 22:39:00,61.6,45.7,28.21,South,180,0.0,0.0,56,0.00,CLR,,0.00,WeatherDisplay:10.37,2013-06-15 02:39:00,
2013-06-14 22:49:00,61.3,44.5,28.21,South,180,0.0,0.0,54,0.00,CLR,,0.00,WeatherDisplay:10.37,2013-06-15 02:49:00,
2013-06-14 22:59:00,61.3,45.0,28.21,South,180,0.0,0.0,55,0.00,CLR,,0.00,WeatherDisplay:10.37,2013-06-15 02:59:00,
2013-06-14 23:09:00,61.0,45.6,28.24,South,180,0.0,0.0,57,0.00,CLR,,0.00,WeatherDisplay:10.37,2013-06-15 03:09:00,
2013-06-14 23:19:00,60.8,45.9,28.24,South,180,0.0,0.0,58,0.00,CLR,,0.00,WeatherDisplay:10.37,2013-06-15 03:19:00,
2013-06-14 23:29:00,60.6,46.2,28.24,South,180,0.0,0.0,59,0.00,CLR,,0.00,WeatherDisplay:10.37,2013-06-15 03:29:00,
2013-06-14 23:39:00,60.4,46.5,28.24,South,180,0.0,0.0,60,0.00,CLR,,0.00,WeatherDisplay:10.37,2013-06-15 03:39:00,
2013-06-14 23:49:00,60.1,46.6,28.24,South,180,0.0,0.0,61,0.00,CLR,,0.00,WeatherDisplay:10.37,2013-06-15 03:49:00,
2013-06-14 23:59:00,59.9,46.4,28.24,SSW,199,0.0,0.0,61,0.00,CLR,,0.00,WeatherDisplay:10.37,2013-06-15 03:59:00,